Wind From: 11-12-2017 04:25 Until: 16:00 warning for: Wind Level: Orange info button

Power and phone distribution networks may be disrupted for relatively long periods., Roofs and chimneys can be damaged. , Tree branches may break. , Vehicles can be deported. , Traffic may be disrupted, particularly on secondary roads in forest areas. Limit your trips. , Limit your speed in highway driving, especially if you drive a vehicle or hitch sensitive to wind. , Do not go for walks in forests or along the coast., In town, be vigilant against possible falling objects., Do not work on roofs and do not touch any electrical line fallen on the ground., Store or secure sensitive objects to wind or likely to be damaged., Always install power generators outside buildings. 


Meteo18 Weather Cam more information Meteo18 Weather Cam


Thunder radar more information blitzortung!


Rain radar more information rain snow radar


Visit our other weather sites:

Template documentation
and downloads

And another site



Weather Underground History page Text

Daily Summary for July 19, 2017 Units:  Metric    English   Both
« Previous Day
Next Day »
Daily Weekly Monthly Yearly Custom
  High: Low: Average:
Temperature: 30.3 °C 19.6 °C 24.3 °C
Dew Point: 19.2 °C 13.4 °C 16 °C
Humidity: 87 % 41 % 61 %
Wind Speed: 24.1 km/h 0.0 km/h 5.3 km/h
Wind Gust: 33.8 km/h - -
Wind:- - SW
Pressure: 1013.4 hPa 1011.1 hPa -
Precipitation: 0.3 mm    
Historical Graphs
 
 
Tabular Data for July 19, 2017
Time Temperature Dew Point Pressure Wind Wind Speed Wind Gust Humidity Rainfall Rate (Hourly)
00:02 24.3 °C 15.5 °C 1011.1 hPa SSW 1.6 km/h 3.2 km/h 58 % 0.0 mm
00:12 24.1 °C 15.6 °C 1011.1 hPa SW 1.6 km/h 3.2 km/h 59 % 0.0 mm
00:17 24.1 °C 15.6 °C 1011.1 hPa SSW 1.6 km/h 3.2 km/h 59 % 0.0 mm
00:22 24.1 °C 15.3 °C 1011.4 hPa Calm   3.2 km/h 58 % 0.0 mm
00:27 23.9 °C 15.7 °C 1011.4 hPa Calm   3.2 km/h 60 % 0.0 mm
00:32 23.7 °C 15.5 °C 1011.1 hPa Calm   3.2 km/h 60 % 0.0 mm
00:42 23.7 °C 15.5 °C 1011.1 hPa Calm   3.2 km/h 60 % 0.0 mm
00:47 23.7 °C 15.5 °C 1011.1 hPa Calm   1.6 km/h 60 % 0.0 mm
00:52 23.6 °C 15.6 °C 1011.4 hPa Calm   1.6 km/h 61 % 0.0 mm
00:57 23.2 °C 15.5 °C 1011.4 hPa Calm   1.6 km/h 62 % 0.0 mm
01:02 22.9 °C 15.5 °C 1011.1 hPa Calm   1.6 km/h 63 % 0.0 mm
01:07 23.1 °C 15.7 °C 1011.1 hPa Calm     63 % 0.0 mm
01:12 23.0 °C 15.6 °C 1011.4 hPa Calm   1.6 km/h 63 % 0.0 mm
01:17 22.8 °C 15.9 °C 1011.4 hPa Calm   1.6 km/h 65 % 0.0 mm
01:22 22.3 °C 15.6 °C 1012.1 hPa WSW 4.8 km/h 4.8 km/h 66 % 0.0 mm
01:27 22.8 °C 16.1 °C 1012.1 hPa SW 11.3 km/h 11.3 km/h 66 % 0.0 mm
01:32 23.7 °C 16.2 °C 1012.1 hPa SW 6.4 km/h 9.7 km/h 63 % 0.0 mm
01:37 24.2 °C 16.2 °C 1012.1 hPa WSW 6.4 km/h 11.3 km/h 61 % 0.0 mm
01:42 24.5 °C 16.2 °C 1012.1 hPa SW 6.4 km/h 11.3 km/h 60 % 0.0 mm
01:47 24.4 °C 16.1 °C 1012.1 hPa SSW 6.4 km/h 11.3 km/h 60 % 0.0 mm
01:52 24.3 °C 16.3 °C 1012.1 hPa SW 4.8 km/h 11.3 km/h 61 % 0.0 mm
01:57 24.3 °C 16.0 °C 1012.1 hPa SSW 6.4 km/h 16.1 km/h 60 % 0.0 mm
02:02 24.0 °C 16.3 °C 1012.1 hPa South 1.6 km/h 16.1 km/h 62 % 0.0 mm
02:12 23.4 °C 16.2 °C 1012.1 hPa SE 1.6 km/h 8.0 km/h 64 % 0.0 mm
02:17 23.2 °C 16.3 °C 1012.1 hPa Calm   4.8 km/h 65 % 0.0 mm
02:22 22.9 °C 16.0 °C 1012.1 hPa ESE 1.6 km/h 4.8 km/h 65 % 0.0 mm
02:27 22.8 °C 15.9 °C 1012.1 hPa Calm   4.8 km/h 65 % 0.0 mm
02:32 22.7 °C 15.8 °C 1012.1 hPa South 3.2 km/h 4.8 km/h 65 % 0.0 mm
02:37 22.9 °C 15.7 °C 1012.1 hPa Calm   6.4 km/h 64 % 0.0 mm
02:42 22.9 °C 15.7 °C 1012.1 hPa SSE 1.6 km/h 6.4 km/h 64 % 0.0 mm
02:47 22.8 °C 15.6 °C 1012.1 hPa Calm   6.4 km/h 64 % 0.0 mm
02:52 22.6 °C 15.4 °C 1012.4 hPa SSW 1.6 km/h 6.4 km/h 64 % 0.0 mm
02:57 22.6 °C 15.4 °C 1012.1 hPa South 6.4 km/h 6.4 km/h 64 % 0.0 mm
03:02 22.6 °C 15.2 °C 1012.1 hPa SSW 4.8 km/h 6.4 km/h 63 % 0.0 mm
03:12 22.1 °C 15.0 °C 1012.1 hPa SSW 3.2 km/h 8.0 km/h 64 % 0.0 mm
03:17 21.9 °C 15.0 °C 1012.4 hPa SSW 1.6 km/h 8.0 km/h 65 % 0.0 mm
03:22 21.7 °C 15.1 °C 1012.4 hPa South 3.2 km/h 6.4 km/h 66 % 0.0 mm
03:27 21.6 °C 15.0 °C 1012.4 hPa South 3.2 km/h 6.4 km/h 66 % 0.0 mm
03:32 21.6 °C 14.7 °C 1012.4 hPa SSW 1.6 km/h 6.4 km/h 65 % 0.0 mm
03:37 21.4 °C 14.8 °C 1012.4 hPa SW 3.2 km/h 4.8 km/h 66 % 0.0 mm
03:42 21.4 °C 14.5 °C 1012.4 hPa SW 4.8 km/h 4.8 km/h 65 % 0.0 mm
03:47 21.5 °C 14.6 °C 1012.1 hPa SSW 1.6 km/h 6.4 km/h 65 % 0.0 mm
03:52 21.6 °C 14.5 °C 1012.1 hPa SSW 1.6 km/h 6.4 km/h 64 % 0.0 mm
03:57 21.7 °C 14.6 °C 1012.1 hPa SSE 1.6 km/h 6.4 km/h 64 % 0.0 mm
04:02 21.5 °C 14.6 °C 1012.1 hPa SSW 1.6 km/h 6.4 km/h 65 % 0.0 mm
04:07 21.4 °C 14.5 °C 1012.1 hPa Calm   3.2 km/h 65 % 0.0 mm
04:12 21.4 °C 14.5 °C 1011.7 hPa SSW 1.6 km/h 3.2 km/h 65 % 0.0 mm
04:17 21.4 °C 14.5 °C 1011.7 hPa Calm   3.2 km/h 65 % 0.0 mm
04:22 21.4 °C 14.5 °C 1011.7 hPa Calm   3.2 km/h 65 % 0.0 mm
04:27 21.3 °C 14.5 °C 1011.7 hPa Calm   3.2 km/h 65 % 0.0 mm
04:32 21.3 °C 14.5 °C 1011.7 hPa Calm   3.2 km/h 65 % 0.0 mm
04:37 21.2 °C 14.4 °C 1011.7 hPa Calm   3.2 km/h 65 % 0.0 mm
04:42 21.2 °C 14.6 °C 1012.1 hPa Calm   3.2 km/h 66 % 0.0 mm
04:47 21.2 °C 14.4 °C 1011.7 hPa SE 1.6 km/h   65 % 0.0 mm
04:52 21.1 °C 14.3 °C 1012.1 hPa Calm     65 % 0.0 mm
05:02 20.8 °C 14.2 °C 1012.1 hPa Calm   3.2 km/h 66 % 0.0 mm
05:12 20.7 °C 14.4 °C 1012.1 hPa Calm   3.2 km/h 67 % 0.0 mm
05:17 20.6 °C 14.3 °C 1011.7 hPa Calm     67 % 0.0 mm
05:22 20.5 °C 14.2 °C 1011.7 hPa Calm     67 % 0.0 mm
05:32 20.3 °C 14.2 °C 1011.7 hPa Calm     68 % 0.0 mm
05:37 20.2 °C 14.3 °C 1011.7 hPa Calm     69 % 0.0 mm
05:42 20.1 °C 14.2 °C 1012.1 hPa Calm     69 % 0.0 mm
05:52 19.6 °C 14.4 °C 1012.4 hPa SSW 3.2 km/h   72 % 0.0 mm
05:57 19.7 °C 14.1 °C 1012.4 hPa SW 4.8 km/h 4.8 km/h 70 % 0.0 mm
06:02 20.0 °C 14.1 °C 1012.4 hPa SSW 3.2 km/h 4.8 km/h 69 % 0.0 mm
06:12 20.4 °C 14.3 °C 1012.4 hPa SSW 4.8 km/h 8.0 km/h 68 % 0.0 mm
06:17 20.3 °C 14.2 °C 1012.1 hPa Calm   9.7 km/h 68 % 0.0 mm
06:22 20.4 °C 14.3 °C 1012.1 hPa Calm   9.7 km/h 68 % 0.0 mm
06:27 20.3 °C 14.4 °C 1012.4 hPa South 1.6 km/h 9.7 km/h 69 % 0.0 mm
06:32 20.3 °C 14.4 °C 1012.4 hPa SSW 1.6 km/h 9.7 km/h 69 % 0.0 mm
06:37 20.3 °C 14.4 °C 1012.4 hPa Calm   6.4 km/h 69 % 0.0 mm
06:42 20.3 °C 14.4 °C 1012.8 hPa WSW 1.6 km/h 6.4 km/h 69 % 0.0 mm
06:52 20.5 °C 14.2 °C 1012.4 hPa SSE 3.2 km/h 11.3 km/h 67 % 0.0 mm
06:57 20.5 °C 14.2 °C 1012.1 hPa ESE 1.6 km/h 11.3 km/h 67 % 0.0 mm
07:02 20.5 °C 14.2 °C 1012.1 hPa ESE 4.8 km/h 11.3 km/h 67 % 0.0 mm
07:12 20.7 °C 14.1 °C 1012.1 hPa SSE 3.2 km/h 9.7 km/h 66 % 0.0 mm
07:17 20.8 °C 14.0 °C 1012.1 hPa South 1.6 km/h 9.7 km/h 65 % 0.0 mm
07:22 20.9 °C 13.8 °C 1011.7 hPa Calm   9.7 km/h 64 % 0.0 mm
07:32 21.2 °C 13.9 °C 1012.1 hPa SSW 3.2 km/h 8.0 km/h 63 % 0.0 mm
07:42 21.5 °C 13.9 °C 1012.1 hPa WSW 1.6 km/h 11.3 km/h 62 % 0.0 mm
07:47 21.7 °C 13.8 °C 1012.1 hPa SW 8.0 km/h 11.3 km/h 61 % 0.0 mm
07:52 21.8 °C 13.4 °C 1012.1 hPa SW 8.0 km/h 11.3 km/h 59 % 0.0 mm
07:57 21.8 °C 13.9 °C 1012.1 hPa SW 6.4 km/h 12.9 km/h 61 % 0.0 mm
08:02 21.7 °C 13.8 °C 1012.1 hPa SSE 3.2 km/h 12.9 km/h 61 % 0.0 mm
08:12 21.8 °C 14.2 °C 1012.4 hPa SSW 3.2 km/h 12.9 km/h 62 % 0.0 mm
08:22 22.2 °C 14.1 °C 1012.4 hPa SSW 3.2 km/h 9.7 km/h 60 % 0.0 mm
08:32 23.1 °C 14.6 °C 1012.1 hPa Calm   9.7 km/h 59 % 0.0 mm
08:37 23.7 °C 14.4 °C 1012.1 hPa Calm   4.8 km/h 56 % 0.0 mm
08:42 23.9 °C 14.3 °C 1012.1 hPa Calm   4.8 km/h 55 % 0.0 mm
08:52 24.3 °C 14.4 °C 1011.7 hPa Calm   3.2 km/h 54 % 0.0 mm
09:02 24.6 °C 14.1 °C 1011.7 hPa Calm   6.4 km/h 52 % 0.0 mm
09:12 25.4 °C 14.5 °C 1011.7 hPa SSW 3.2 km/h 8.0 km/h 51 % 0.0 mm
09:17 25.4 °C 14.8 °C 1012.1 hPa ESE 3.2 km/h 8.0 km/h 52 % 0.0 mm
09:22 25.6 °C 14.7 °C 1011.7 hPa SE 4.8 km/h 8.0 km/h 51 % 0.0 mm
09:27 26.0 °C 14.8 °C 1012.1 hPa SSW 1.6 km/h 9.7 km/h 50 % 0.0 mm
09:32 26.2 °C 14.6 °C 1012.1 hPa South 3.2 km/h 9.7 km/h 49 % 0.0 mm
09:42 26.3 °C 15.0 °C 1012.1 hPa SSE 9.7 km/h 9.7 km/h 50 % 0.0 mm
09:47 26.8 °C 14.5 °C 1012.1 hPa East 4.8 km/h 11.3 km/h 47 % 0.0 mm
09:52 27.4 °C 14.4 °C 1012.1 hPa SW 6.4 km/h 11.3 km/h 45 % 0.0 mm
09:57 27.6 °C 14.6 °C 1012.1 hPa SW 11.3 km/h 16.1 km/h 45 % 0.0 mm
10:02 27.6 °C 13.5 °C 1012.4 hPa South 6.4 km/h 16.1 km/h 42 % 0.0 mm
10:12 27.6 °C 14.2 °C 1012.4 hPa South 4.8 km/h 17.7 km/h 44 % 0.0 mm
10:17 27.6 °C 14.2 °C 1012.4 hPa SSE 11.3 km/h 20.9 km/h 44 % 0.0 mm
10:22 27.8 °C 13.7 °C 1012.4 hPa SSW 24.1 km/h 24.1 km/h 42 % 0.0 mm
10:32 28.1 °C 13.6 °C 1012.1 hPa South 11.3 km/h 25.7 km/h 41 % 0.0 mm
10:37 28.2 °C 13.7 °C 1012.1 hPa SW 24.1 km/h 25.7 km/h 41 % 0.0 mm
10:42 28.0 °C 13.5 °C 1012.4 hPa SSW 16.1 km/h 25.7 km/h 41 % 0.0 mm
10:47 28.1 °C 14.3 °C 1012.4 hPa SW 17.7 km/h 29.0 km/h 43 % 0.0 mm
10:52 27.7 °C 13.6 °C 1012.1 hPa SSW 12.9 km/h 29.0 km/h 42 % 0.0 mm
10:57 27.5 °C 13.8 °C 1012.4 hPa SSW 12.9 km/h 33.8 km/h 43 % 0.0 mm
11:02 27.4 °C 13.7 °C 1012.4 hPa West 9.7 km/h 33.8 km/h 43 % 0.0 mm
11:07 27.6 °C 14.2 °C 1012.4 hPa WSW 17.7 km/h 33.8 km/h 44 % 0.0 mm
11:17 27.1 °C 14.1 °C 1012.4 hPa SW 16.1 km/h 29.0 km/h 45 % 0.0 mm
11:22 26.8 °C 14.2 °C 1012.8 hPa WSW 9.7 km/h 29.0 km/h 46 % 0.0 mm
11:27 26.9 °C 14.3 °C 1012.8 hPa SW 6.4 km/h 29.0 km/h 46 % 0.0 mm
11:32 27.2 °C 14.2 °C 1012.8 hPa SW 24.1 km/h 29.0 km/h 45 % 0.0 mm
11:37 27.3 °C 14.7 °C 1012.8 hPa SSE 8.0 km/h 25.7 km/h 46 % 0.0 mm
11:42 27.1 °C 13.8 °C 1012.8 hPa WSW 14.5 km/h 25.7 km/h 44 % 0.0 mm
11:47 26.7 °C 14.1 °C 1012.8 hPa SW 8.0 km/h 32.2 km/h 46 % 0.0 mm
11:52 26.3 °C 14.4 °C 1013.1 hPa SW 20.9 km/h 32.2 km/h 48 % 0.0 mm
11:57 25.7 °C 15.1 °C 1013.1 hPa West 9.7 km/h 30.6 km/h 52 % 0.0 mm
12:02 25.2 °C 15.2 °C 1013.1 hPa SW 12.9 km/h 30.6 km/h 54 % 0.0 mm
12:12 24.9 °C 15.5 °C 1013.1 hPa SW 6.4 km/h 22.5 km/h 56 % 0.0 mm
12:17 24.8 °C 15.4 °C 1013.1 hPa West 12.9 km/h 19.3 km/h 56 % 0.0 mm
12:27 24.4 °C 16.1 °C 1013.1 hPa WNW 6.4 km/h 19.3 km/h 60 % 0.0 mm
12:32 24.3 °C 16.8 °C 1013.1 hPa Calm   19.3 km/h 63 % 0.0 mm
12:37 24.4 °C 16.9 °C 1013.1 hPa NNW 1.6 km/h 14.5 km/h 63 % 0.0 mm
12:42 24.6 °C 17.3 °C 1012.8 hPa NNW 4.8 km/h 14.5 km/h 64 % 0.0 mm
12:47 24.7 °C 16.9 °C 1012.8 hPa NNW 4.8 km/h 8.0 km/h 62 % 0.0 mm
12:52 24.9 °C 16.9 °C 1012.8 hPa WNW 4.8 km/h 8.0 km/h 61 % 0.0 mm
13:02 25.3 °C 17.0 °C 1013.1 hPa Calm   6.4 km/h 60 % 0.0 mm
13:07 25.5 °C 16.6 °C 1013.1 hPa West 3.2 km/h 8.0 km/h 58 % 0.0 mm
13:12 25.7 °C 17.1 °C 1012.8 hPa Calm   8.0 km/h 59 % 0.0 mm
13:17 26.2 °C 16.7 °C 1012.8 hPa WSW 3.2 km/h 8.0 km/h 56 % 0.0 mm
13:22 26.4 °C 16.3 °C 1012.8 hPa SW 3.2 km/h 8.0 km/h 54 % 0.0 mm
13:32 26.4 °C 16.0 °C 1012.8 hPa West 3.2 km/h 8.0 km/h 53 % 0.0 mm
13:37 26.5 °C 16.4 °C 1012.8 hPa SSW 4.8 km/h 8.0 km/h 54 % 0.0 mm
13:42 26.6 °C 16.2 °C 1012.8 hPa SW 8.0 km/h 9.7 km/h 53 % 0.0 mm
13:47 26.7 °C 16.3 °C 1012.8 hPa West 6.4 km/h 9.7 km/h 53 % 0.0 mm
13:52 27.2 °C 16.8 °C 1012.8 hPa SW 1.6 km/h 9.7 km/h 53 % 0.0 mm
13:57 27.4 °C 16.4 °C 1012.4 hPa WSW 3.2 km/h 8.0 km/h 51 % 0.0 mm
14:02 27.6 °C 16.2 °C 1012.4 hPa SSW 1.6 km/h 8.0 km/h 50 % 0.0 mm
14:12 28.3 °C 16.2 °C 1012.4 hPa SW 1.6 km/h 9.7 km/h 48 % 0.0 mm
14:17 28.5 °C 16.4 °C 1012.1 hPa Calm   3.2 km/h 48 % 0.0 mm
14:22 28.9 °C 16.5 °C 1012.1 hPa Calm   3.2 km/h 47 % 0.0 mm
14:27 28.8 °C 16.7 °C 1012.4 hPa Calm   3.2 km/h 48 % 0.0 mm
14:32 28.5 °C 16.7 °C 1012.1 hPa SW 3.2 km/h 3.2 km/h 49 % 0.0 mm
14:37 28.5 °C 17.1 °C 1012.1 hPa WSW 1.6 km/h 3.2 km/h 50 % 0.0 mm
14:42 28.5 °C 16.4 °C 1012.1 hPa West 3.2 km/h 6.4 km/h 48 % 0.0 mm
14:47 28.8 °C 16.7 °C 1012.1 hPa Calm   6.4 km/h 48 % 0.0 mm
14:52 28.9 °C 16.5 °C 1011.7 hPa SE 4.8 km/h 6.4 km/h 47 % 0.0 mm
14:57 29.2 °C 16.4 °C 1011.7 hPa SSE 3.2 km/h 6.4 km/h 46 % 0.0 mm
15:02 29.4 °C 15.9 °C 1011.7 hPa SW 3.2 km/h 6.4 km/h 44 % 0.0 mm
15:07 29.6 °C 16.4 °C 1011.7 hPa WSW 3.2 km/h 6.4 km/h 45 % 0.0 mm
15:12 29.8 °C 16.2 °C 1011.7 hPa SSW 3.2 km/h 12.9 km/h 44 % 0.0 mm
15:17 29.8 °C 15.5 °C 1011.7 hPa SW 9.7 km/h 19.3 km/h 42 % 0.0 mm
15:22 29.6 °C 15.3 °C 1011.7 hPa SW 9.7 km/h 22.5 km/h 42 % 0.0 mm
15:32 29.8 °C 15.1 °C 1011.7 hPa West 14.5 km/h 22.5 km/h 41 % 0.0 mm
15:42 29.7 °C 15.4 °C 1011.7 hPa SW 8.0 km/h 17.7 km/h 42 % 0.0 mm
15:47 29.9 °C 15.6 °C 1011.7 hPa SW 6.4 km/h 17.7 km/h 42 % 0.0 mm
15:52 30.2 °C 15.9 °C 1011.7 hPa WSW 8.0 km/h 17.7 km/h 42 % 0.0 mm
16:02 30.3 °C 16.0 °C 1011.7 hPa SSW 11.3 km/h 17.7 km/h 42 % 0.0 mm
16:07 30.2 °C 16.2 °C 1011.4 hPa SW 20.9 km/h 20.9 km/h 43 % 0.0 mm
16:12 30.0 °C 16.4 °C 1011.4 hPa SSW 9.7 km/h 20.9 km/h 44 % 0.0 mm
16:17 29.9 °C 16.0 °C 1011.4 hPa SSW 4.8 km/h 20.9 km/h 43 % 0.0 mm
16:22 29.8 °C 16.2 °C 1011.4 hPa SW 6.4 km/h 20.9 km/h 44 % 0.0 mm
16:32 29.9 °C 15.6 °C 1011.1 hPa West 17.7 km/h 20.9 km/h 42 % 0.0 mm
16:42 29.8 °C 15.1 °C 1011.4 hPa South 8.0 km/h 22.5 km/h 41 % 0.0 mm
16:47 29.6 °C 15.0 °C 1011.4 hPa WSW 16.1 km/h 22.5 km/h 41 % 0.0 mm
16:52 29.2 °C 15.0 °C 1011.7 hPa West 19.3 km/h 25.7 km/h 42 % 0.0 mm
17:02 28.5 °C 14.7 °C 1012.1 hPa WSW 24.1 km/h 25.7 km/h 43 % 0.0 mm
17:12 27.6 °C 15.6 °C 1012.1 hPa WSW 16.1 km/h 25.7 km/h 48 % 0.0 mm
17:17 27.1 °C 16.1 °C 1012.1 hPa SW 12.9 km/h 25.7 km/h 51 % 0.0 mm
17:22 26.8 °C 16.1 °C 1012.1 hPa SW 12.9 km/h 22.5 km/h 52 % 0.0 mm
17:32 26.3 °C 16.5 °C 1011.7 hPa West 6.4 km/h 20.9 km/h 55 % 0.0 mm
17:37 26.1 °C 16.6 °C 1011.7 hPa WSW 11.3 km/h 20.9 km/h 56 % 0.0 mm
17:42 26.1 °C 16.6 °C 1011.7 hPa SW 4.8 km/h 17.7 km/h 56 % 0.0 mm
17:47 26.1 °C 16.6 °C 1011.7 hPa WSW 12.9 km/h 17.7 km/h 56 % 0.0 mm
17:52 26.0 °C 16.8 °C 1011.7 hPa WSW 12.9 km/h 16.1 km/h 57 % 0.0 mm
17:57 26.0 °C 16.8 °C 1011.7 hPa SW 14.5 km/h 17.7 km/h 57 % 0.0 mm
18:02 26.1 °C 17.2 °C 1011.7 hPa West 8.0 km/h 17.7 km/h 58 % 0.0 mm
18:07 26.1 °C 16.9 °C 1011.4 hPa West 6.4 km/h 20.9 km/h 57 % 0.0 mm
18:12 26.1 °C 17.2 °C 1011.4 hPa West 3.2 km/h 19.3 km/h 58 % 0.0 mm
18:17 26.2 °C 16.7 °C 1011.4 hPa WSW 8.0 km/h 19.3 km/h 56 % 0.0 mm
18:22 26.1 °C 16.9 °C 1011.4 hPa SW 14.5 km/h 19.3 km/h 57 % 0.0 mm
18:27 26.1 °C 16.9 °C 1011.4 hPa SW 14.5 km/h 19.3 km/h 57 % 0.0 mm
18:32 25.8 °C 16.9 °C 1011.7 hPa South 8.0 km/h 27.4 km/h 58 % 0.0 mm
18:42 25.1 °C 17.0 °C 1011.7 hPa SSW 6.4 km/h 29.0 km/h 61 % 0.0 mm
18:52 24.2 °C 17.9 °C 1011.7 hPa WSW 14.5 km/h 24.1 km/h 68 % 0.3 mm
18:57 23.7 °C 17.9 °C 1011.7 hPa West 8.0 km/h 24.1 km/h 70 % 0.3 mm
19:02 23.5 °C 18.2 °C 1011.7 hPa WSW 3.2 km/h 24.1 km/h 72 % 0.3 mm
19:07 23.3 °C 18.2 °C 1011.7 hPa SW 4.8 km/h 17.7 km/h 73 % 0.3 mm
19:12 23.3 °C 18.2 °C 1011.7 hPa WSW 4.8 km/h 16.1 km/h 73 % 0.3 mm
19:17 23.3 °C 18.2 °C 1011.7 hPa SW 8.0 km/h 16.1 km/h 73 % 0.3 mm
19:22 23.2 °C 18.1 °C 1011.7 hPa SW 4.8 km/h 16.1 km/h 73 % 0.3 mm
19:27 23.3 °C 18.0 °C 1011.4 hPa West 11.3 km/h 17.7 km/h 72 % 0.3 mm
19:32 23.4 °C 18.3 °C 1011.4 hPa SW 11.3 km/h 17.7 km/h 73 % 0.3 mm
19:42 23.5 °C 18.4 °C 1011.7 hPa WSW 4.8 km/h 16.1 km/h 73 % 0.3 mm
19:47 23.6 °C 18.5 °C 1011.7 hPa SW 11.3 km/h 11.3 km/h 73 % 0.0 mm
19:57 23.6 °C 18.5 °C 1011.7 hPa SW 8.0 km/h 16.1 km/h 73 % 0.0 mm
20:02 23.6 °C 18.7 °C 1011.7 hPa SW 8.0 km/h 16.1 km/h 74 % 0.0 mm
20:07 23.6 °C 18.7 °C 1011.7 hPa SW 6.4 km/h 16.1 km/h 74 % 0.0 mm
20:12 23.6 °C 18.7 °C 1011.7 hPa SSW 4.8 km/h 16.1 km/h 74 % 0.0 mm
20:17 23.7 °C 18.8 °C 1012.1 hPa SW 11.3 km/h 17.7 km/h 74 % 0.0 mm
20:22 23.7 °C 18.6 °C 1011.7 hPa West 4.8 km/h 17.7 km/h 73 % 0.0 mm
20:32 23.7 °C 18.8 °C 1012.1 hPa SW 4.8 km/h 17.7 km/h 74 % 0.0 mm
20:37 23.6 °C 18.9 °C 1012.1 hPa WSW 6.4 km/h 12.9 km/h 75 % 0.0 mm
20:42 23.6 °C 18.9 °C 1012.4 hPa WSW 4.8 km/h 12.9 km/h 75 % 0.0 mm
20:47 23.5 °C 19.0 °C 1012.4 hPa SW 8.0 km/h 12.9 km/h 76 % 0.0 mm
20:52 23.5 °C 19.0 °C 1012.4 hPa SSW 8.0 km/h 12.9 km/h 76 % 0.0 mm
20:57 23.5 °C 19.0 °C 1012.4 hPa WSW 4.8 km/h 12.9 km/h 76 % 0.0 mm
21:02 23.4 °C 18.9 °C 1012.8 hPa SW 4.8 km/h 12.9 km/h 76 % 0.0 mm
21:07 23.4 °C 19.1 °C 1012.8 hPa SW 4.8 km/h 12.9 km/h 77 % 0.0 mm
21:12 23.3 °C 19.2 °C 1012.8 hPa SW 1.6 km/h 12.9 km/h 78 % 0.0 mm
21:17 23.2 °C 19.1 °C 1012.8 hPa WSW 4.8 km/h 14.5 km/h 78 % 0.0 mm
21:22 22.9 °C 19.1 °C 1012.8 hPa SW 3.2 km/h 14.5 km/h 79 % 0.0 mm
21:27 22.7 °C 19.1 °C 1012.4 hPa WSW 4.8 km/h 14.5 km/h 80 % 0.0 mm
21:32 22.6 °C 19.0 °C 1012.4 hPa West 1.6 km/h 14.5 km/h 80 % 0.0 mm
21:42 22.2 °C 18.8 °C 1012.4 hPa WNW 4.8 km/h 9.7 km/h 81 % 0.0 mm
21:47 22.1 °C 18.7 °C 1012.4 hPa WNW 8.0 km/h 11.3 km/h 81 % 0.0 mm
21:52 22.1 °C 18.7 °C 1012.4 hPa West 1.6 km/h 11.3 km/h 81 % 0.0 mm
21:57 21.9 °C 18.7 °C 1012.4 hPa WNW 3.2 km/h 11.3 km/h 82 % 0.0 mm
22:02 21.8 °C 18.6 °C 1012.4 hPa WSW 3.2 km/h 11.3 km/h 82 % 0.0 mm
22:12 21.7 °C 18.7 °C 1012.4 hPa WSW 1.6 km/h 6.4 km/h 83 % 0.0 mm
22:17 21.6 °C 18.6 °C 1012.8 hPa Calm   6.4 km/h 83 % 0.0 mm
22:22 21.5 °C 18.7 °C 1012.8 hPa WSW 1.6 km/h 6.4 km/h 84 % 0.0 mm
22:32 21.5 °C 18.7 °C 1012.8 hPa Calm   4.8 km/h 84 % 0.0 mm
22:42 21.3 °C 18.5 °C 1012.8 hPa SSW 3.2 km/h 6.4 km/h 84 % 0.0 mm
22:52 21.0 °C 18.6 °C 1012.8 hPa SW 3.2 km/h 6.4 km/h 86 % 0.0 mm
22:57 21.0 °C 18.6 °C 1012.8 hPa WSW 1.6 km/h 6.4 km/h 86 % 0.0 mm
23:02 21.2 °C 18.8 °C 1012.8 hPa WSW 3.2 km/h 6.4 km/h 86 % 0.0 mm
23:07 21.4 °C 18.8 °C 1012.8 hPa WSW 6.4 km/h 8.0 km/h 85 % 0.0 mm
23:12 21.4 °C 18.8 °C 1013.1 hPa WSW 8.0 km/h 9.7 km/h 85 % 0.0 mm
23:17 21.4 °C 18.8 °C 1012.8 hPa West 8.0 km/h 9.7 km/h 85 % 0.0 mm
23:22 21.4 °C 18.8 °C 1013.1 hPa SW 6.4 km/h 11.3 km/h 85 % 0.0 mm
23:32 21.3 °C 18.7 °C 1013.1 hPa West 3.2 km/h 11.3 km/h 85 % 0.0 mm
23:42 20.9 °C 18.5 °C 1013.1 hPa SSW 6.4 km/h 9.7 km/h 86 % 0.0 mm
23:47 20.8 °C 18.6 °C 1013.1 hPa WSW 3.2 km/h 8.0 km/h 87 % 0.0 mm
23:52 20.8 °C 18.6 °C 1013.4 hPa SSE 3.2 km/h 11.3 km/h 87 % 0.0 mm
23:57 20.7 °C 18.5 °C 1013.4 hPa SW 3.2 km/h 11.3 km/h 87 % 0.0 mm
Meteo18
Compliments of Weather Underground - 4 mb

Script developed by  Jim McMurry - jmcmurry@mwt.net Adapted for the template by  Wim van der Kuil - Leuven-Template.eu

You find our weather info also at:

European Weather Network

Weather Underground

Equipment we use:

Weather-station
Davis Vue

Weather-program
Meteohub

Weather-server
Raspberry PI 2 B+

Provider
1 and 1

Davis Vue

Meteohub

Raspberry PI 2 B+

1 and 1